Fresno, CA (93650)

2:45 PM PDT on March 25, 2017 (GMT -0700)
Fresno, California | | Change Station

Elev 299 ft 36.83 °N, 119.81 °W | Updated 7 minutes ago

Overcast
Overcast
64.4 °F
Feels Like 64.4 °F
N
2.7
Wind Variable Wind from SW

Today
High -- | Low -- °F
--% Chance of Precip.
Yesterday
High -- | Low -- °F
Precip. -- in
Pressure 30.14 in
Visibility 10.0 miles
Clouds Scattered Clouds 1500 ft
Mostly Cloudy 2900 ft
Dew Point 55 °F
Humidity 72%
Rainfall 0.66 in
Snow Depth Not available.
6:54 AM 7:15 PM
Waning Crescent, 6% visible
METAR KFAT 252053Z 31004KT 10SM SCT015 BKN029 14/11 A3014 RMK AO2 SLP206 T01440106 58002
Pressure 30.14 in
Visibility 10.0 miles
Clouds Scattered Clouds 1500 ft
Mostly Cloudy 2900 ft
Dew Point 55 °F
Humidity 72%
Rainfall 0.66 in
Snow Depth Not available.
6:54 AM 7:15 PM
Waning Crescent, 6% visible
METAR KFAT 252053Z 31004KT 10SM SCT015 BKN029 14/11 A3014 RMK AO2 SLP206 T01440106 58002

Get Severe Weather Alerts

Thanks for signing up!

Be on the lookout for a verification email in your inbox.

You'll start receiving the daily forecast at 8 AM.

×

10-Day Weather Forecast

Almanac

Astronomy

Mar. 25, 2017 Rise Set
Actual Time
Civil Twilight
Nautical Twilight
Astronomical Twilight
Moon
Length of Visible Light
Length of Day
Tomorrow will be .
, % of the Moon is Illuminated

Today's Extremes

State Highs State Lows

Community

WunderPhotos

Upload Photos

1,962,540 photos uploaded!

WunderBlog® & News

Nearby

Air Quality

  Air Quality AQ Index Pollutant
Not available.

Snow Depth

Station Depth Elevation

Earthquake Activity

City Distance Mag. Time & Date
Minimum magnitude displayed is 2.5.

Earthquake Activity

City Distance Mag. Time & Date
Minimum magnitude displayed is 2.5.

Coastal Water Temperatures

Place Temperature

Stations

Nearby Weather Stations

Station Location Temp. Windchill Dew Point Humidity Wind Precip. Elev Updated Type
                   

Watches & Warnings

There are currently no watches in effect.